Terminal Aerodrome Forecast
Issued by NWS

Home | Current Version | Previous Version | Text Only | Print | Product List | Glossary On
Versions: 1 2 3 4 5 6 7 8 9 10 11 12 13 14
000
FTUS44 KLZK 291132
TAFLLQ
TAF
KLLQ 291132Z 2912/3012 14006KT P6SM SCT005 BKN025
     FM291500 15008KT P6SM BKN030
     FM291800 16010KT P6SM VCTS BKN040CB
     FM300100 15007KT P6SM SCT040
     FM300800 17006KT P6SM BKN015=

USA.gov is the U.S. government's official web portal to all federal, state and local government web resources and services.